sensor_id;sensor_type;location;lat;lon;timestamp;pressure;altitude;pressure_sealevel;temperature;humidity
49459;BME280;35354;51.296;16.924;2023-06-24T00:00:43;99856.03;;;19.22;100.00
49459;BME280;35354;51.296;16.924;2023-06-24T00:03:09;99844.38;;;19.13;100.00
49459;BME280;35354;51.296;16.924;2023-06-24T00:05:34;99869.59;;;19.28;100.00
49459;BME280;35354;51.296;16.924;2023-06-24T00:07:59;99855.09;;;19.23;100.00
49459;BME280;35354;51.296;16.924;2023-06-24T00:10:27;99874.88;;;19.28;100.00
49459;BME280;35354;51.296;16.924;2023-06-24T00:12:53;99880.63;;;19.33;100.00
49459;BME280;35354;51.296;16.924;2023-06-24T00:15:18;99858.91;;;19.18;100.00
49459;BME280;35354;51.296;16.924;2023-06-24T00:17:43;99850.75;;;19.10;100.00
49459;BME280;35354;51.296;16.924;2023-06-24T00:20:09;99878.00;;;19.22;100.00
49459;BME280;35354;51.296;16.924;2023-06-24T00:22:38;99863.84;;;19.01;100.00
49459;BME280;35354;51.296;16.924;2023-06-24T00:25:09;99870.31;;;19.08;100.00
49459;BME280;35354;51.296;16.924;2023-06-24T00:27:34;99881.00;;;19.17;100.00
49459;BME280;35354;51.296;16.924;2023-06-24T00:30:00;99871.06;;;19.10;100.00
49459;BME280;35354;51.296;16.924;2023-06-24T00:32:25;99870.31;;;19.08;100.00
49459;BME280;35354;51.296;16.924;2023-06-24T00:34:50;99883.50;;;19.08;100.00
49459;BME280;35354;51.296;16.924;2023-06-24T00:37:16;99869.00;;;19.02;100.00
49459;BME280;35354;51.296;16.924;2023-06-24T00:39:41;99889.03;;;19.16;100.00
49459;BME280;35354;51.296;16.924;2023-06-24T00:42:07;99887.84;;;19.20;100.00
49459;BME280;35354;51.296;16.924;2023-06-24T00:44:32;99888.06;;;19.17;100.00
49459;BME280;35354;51.296;16.924;2023-06-24T00:46:57;99885.78;;;19.12;100.00
49459;BME280;35354;51.296;16.924;2023-06-24T00:49:23;99875.63;;;18.97;100.00
49459;BME280;35354;51.296;16.924;2023-06-24T00:51:48;99902.00;;;19.08;100.00
49459;BME280;35354;51.296;16.924;2023-06-24T00:54:18;99904.28;;;18.90;100.00
49459;BME280;35354;51.296;16.924;2023-06-24T00:56:45;99893.09;;;18.75;100.00
49459;BME280;35354;51.296;16.924;2023-06-24T00:59:13;99895.78;;;18.62;100.00
49459;BME280;35354;51.296;16.924;2023-06-24T01:01:40;99919.91;;;18.69;100.00
49459;BME280;35354;51.296;16.924;2023-06-24T01:04:06;99913.41;;;18.51;100.00
49459;BME280;35354;51.296;16.924;2023-06-24T01:06:32;99927.09;;;18.32;100.00
49459;BME280;35354;51.296;16.924;2023-06-24T01:08:58;99921.84;;;18.32;100.00
49459;BME280;35354;51.296;16.924;2023-06-24T01:11:31;99916.19;;;18.25;100.00
49459;BME280;35354;51.296;16.924;2023-06-24T01:13:57;99907.81;;;18.07;100.00
49459;BME280;35354;51.296;16.924;2023-06-24T01:19:04;99921.63;;;17.87;100.00
49459;BME280;35354;51.296;16.924;2023-06-24T01:22:01;99942.09;;;17.83;100.00
49459;BME280;35354;51.296;16.924;2023-06-24T01:27:46;99908.03;;;17.31;100.00
49459;BME280;35354;51.296;16.924;2023-06-24T01:33:15;99956.25;;;17.44;100.00
49459;BME280;35354;51.296;16.924;2023-06-24T01:35:46;99959.00;;;17.42;100.00
49459;BME280;35354;51.296;16.924;2023-06-24T01:38:22;99963.31;;;17.43;100.00
49459;BME280;35354;51.296;16.924;2023-06-24T01:40:48;99976.28;;;17.46;100.00
49459;BME280;35354;51.296;16.924;2023-06-24T01:43:16;99965.13;;;17.43;100.00
49459;BME280;35354;51.296;16.924;2023-06-24T01:45:45;99975.34;;;17.35;100.00
49459;BME280;35354;51.296;16.924;2023-06-24T01:48:19;99949.97;;;17.21;100.00
49459;BME280;35354;51.296;16.924;2023-06-24T01:51:15;99988.41;;;17.36;100.00
49459;BME280;35354;51.296;16.924;2023-06-24T01:53:44;99985.88;;;17.35;100.00
49459;BME280;35354;51.296;16.924;2023-06-24T01:56:15;99961.34;;;17.09;100.00
49459;BME280;35354;51.296;16.924;2023-06-24T01:58:42;99991.78;;;17.26;100.00
49459;BME280;35354;51.296;16.924;2023-06-24T02:01:08;99953.66;;;17.06;100.00
49459;BME280;35354;51.296;16.924;2023-06-24T02:03:35;99996.09;;;17.27;100.00
49459;BME280;35354;51.296;16.924;2023-06-24T02:06:02;99956.84;;;16.98;100.00
49459;BME280;35354;51.296;16.924;2023-06-24T02:08:33;100007.69;;;17.24;100.00
49459;BME280;35354;51.296;16.924;2023-06-24T02:11:01;99969.34;;;16.94;100.00
49459;BME280;35354;51.296;16.924;2023-06-24T02:13:29;100003.25;;;17.12;100.00
49459;BME280;35354;51.296;16.924;2023-06-24T02:15:59;100006.28;;;17.18;100.00
49459;BME280;35354;51.296;16.924;2023-06-24T02:18:26;99981.44;;;16.97;100.00
49459;BME280;35354;51.296;16.924;2023-06-24T02:20:53;100003.44;;;17.09;100.00
49459;BME280;35354;51.296;16.924;2023-06-24T02:23:20;99978.25;;;16.79;100.00
49459;BME280;35354;51.296;16.924;2023-06-24T02:25:46;99988.91;;;16.78;100.00
49459;BME280;35354;51.296;16.924;2023-06-24T02:28:13;100006.28;;;16.93;100.00
49459;BME280;35354;51.296;16.924;2023-06-24T02:30:39;100020.19;;;16.95;100.00
49459;BME280;35354;51.296;16.924;2023-06-24T02:33:05;100002.47;;;16.84;100.00
49459;BME280;35354;51.296;16.924;2023-06-24T02:35:31;99996.16;;;16.74;100.00
49459;BME280;35354;51.296;16.924;2023-06-24T02:37:57;100031.53;;;16.95;100.00
49459;BME280;35354;51.296;16.924;2023-06-24T02:40:22;100031.53;;;16.95;100.00
49459;BME280;35354;51.296;16.924;2023-06-24T02:42:47;100022.16;;;16.91;100.00
49459;BME280;35354;51.296;16.924;2023-06-24T02:45:13;100032.19;;;16.99;100.00
49459;BME280;35354;51.296;16.924;2023-06-24T02:47:43;100016.91;;;16.91;100.00
49459;BME280;35354;51.296;16.924;2023-06-24T02:50:10;100029.13;;;17.05;100.00
49459;BME280;35354;51.296;16.924;2023-06-24T02:52:36;100046.31;;;17.11;100.00
49459;BME280;35354;51.296;16.924;2023-06-24T02:55:03;100031.53;;;16.95;100.00
49459;BME280;35354;51.296;16.924;2023-06-24T02:57:29;100015.63;;;16.84;100.00
49459;BME280;35354;51.296;16.924;2023-06-24T02:59:55;100040.81;;;17.01;100.00
49459;BME280;35354;51.296;16.924;2023-06-24T03:02:21;100046.81;;;17.03;100.00
49459;BME280;35354;51.296;16.924;2023-06-24T03:04:48;100055.66;;;17.02;100.00
49459;BME280;35354;51.296;16.924;2023-06-24T03:07:15;100034.50;;;16.91;100.00
49459;BME280;35354;51.296;16.924;2023-06-24T03:09:41;100067.03;;;17.03;100.00
49459;BME280;35354;51.296;16.924;2023-06-24T03:12:07;100050.16;;;16.92;100.00
49459;BME280;35354;51.296;16.924;2023-06-24T03:14:32;100041.31;;;16.93;100.00
49459;BME280;35354;51.296;16.924;2023-06-24T03:16:58;100057.44;;;17.02;100.00
49459;BME280;35354;51.296;16.924;2023-06-24T03:19:23;100042.69;;;16.86;100.00
49459;BME280;35354;51.296;16.924;2023-06-24T03:21:49;100068.81;;;17.02;100.00
49459;BME280;35354;51.296;16.924;2023-06-24T03:24:14;100079.25;;;17.04;100.00
49459;BME280;35354;51.296;16.924;2023-06-24T03:26:40;100058.88;;;16.93;100.00
49459;BME280;35354;51.296;16.924;2023-06-24T03:29:05;100071.66;;;16.99;100.00
49459;BME280;35354;51.296;16.924;2023-06-24T03:31:32;100092.22;;;17.07;100.00
49459;BME280;35354;51.296;16.924;2023-06-24T03:33:58;100088.50;;;17.09;100.00
49459;BME280;35354;51.296;16.924;2023-06-24T03:36:23;100059.19;;;16.88;100.00
49459;BME280;35354;51.296;16.924;2023-06-24T03:38:49;100086.50;;;17.00;100.00
49459;BME280;35354;51.296;16.924;2023-06-24T03:41:15;100090.28;;;16.96;100.00
49459;BME280;35354;51.296;16.924;2023-06-24T03:43:40;100068.47;;;16.81;100.00
49459;BME280;35354;51.296;16.924;2023-06-24T03:46:07;100096.88;;;16.89;100.00
49459;BME280;35354;51.296;16.924;2023-06-24T03:48:32;100112.28;;;16.95;100.00
49459;BME280;35354;51.296;16.924;2023-06-24T03:50:58;100101.28;;;16.88;100.00
49459;BME280;35354;51.296;16.924;2023-06-24T03:53:23;100106.97;;;16.82;100.00
49459;BME280;35354;51.296;16.924;2023-06-24T03:55:49;100092.34;;;16.78;100.00
49459;BME280;35354;51.296;16.924;2023-06-24T03:58:14;100076.13;;;16.57;100.00
49459;BME280;35354;51.296;16.924;2023-06-24T04:00:42;100093.28;;;16.63;100.00
49459;BME280;35354;51.296;16.924;2023-06-24T04:03:09;100095.72;;;16.66;100.00
49459;BME280;35354;51.296;16.924;2023-06-24T04:05:35;100125.19;;;16.71;100.00
49459;BME280;35354;51.296;16.924;2023-06-24T04:08:00;100116.22;;;16.61;100.00
49459;BME280;35354;51.296;16.924;2023-06-24T04:10:26;100084.81;;;16.45;100.00
49459;BME280;35354;51.296;16.924;2023-06-24T04:12:51;100113.66;;;16.59;100.00
49459;BME280;35354;51.296;16.924;2023-06-24T04:15:17;100077.34;;;16.25;100.00
49459;BME280;35354;51.296;16.924;2023-06-24T04:17:42;100113.59;;;16.46;100.00
49459;BME280;35354;51.296;16.924;2023-06-24T04:20:08;100126.97;;;16.43;100.00
49459;BME280;35354;51.296;16.924;2023-06-24T04:22:37;100106.91;;;16.28;100.00
49459;BME280;35354;51.296;16.924;2023-06-24T04:25:04;100124.47;;;16.28;100.00
49459;BME280;35354;51.296;16.924;2023-06-24T04:27:31;100112.81;;;16.17;100.00
49459;BME280;35354;51.296;16.924;2023-06-24T04:29:56;100131.28;;;16.30;100.00
49459;BME280;35354;51.296;16.924;2023-06-24T04:32:21;100130.38;;;16.31;100.00
49459;BME280;35354;51.296;16.924;2023-06-24T04:34:47;100140.97;;;16.44;100.00
49459;BME280;35354;51.296;16.924;2023-06-24T04:37:12;100125.56;;;16.38;100.00
49459;BME280;35354;51.296;16.924;2023-06-24T04:39:37;100137.84;;;16.37;100.00
49459;BME280;35354;51.296;16.924;2023-06-24T04:42:03;100121.66;;;16.16;100.00
49459;BME280;35354;51.296;16.924;2023-06-24T04:44:29;100127.28;;;16.25;100.00
49459;BME280;35354;51.296;16.924;2023-06-24T04:46:54;100119.78;;;16.18;100.00
49459;BME280;35354;51.296;16.924;2023-06-24T04:49:19;100121.34;;;16.21;100.00
49459;BME280;35354;51.296;16.924;2023-06-24T04:51:45;100128.22;;;16.24;100.00
49459;BME280;35354;51.296;16.924;2023-06-24T04:54:10;100133.66;;;16.20;100.00
49459;BME280;35354;51.296;16.924;2023-06-24T04:56:37;100128.28;;;16.22;100.00
49459;BME280;35354;51.296;16.924;2023-06-24T04:59:02;100158.78;;;16.39;100.00
49459;BME280;35354;51.296;16.924;2023-06-24T05:01:28;100165.28;;;16.48;100.00
49459;BME280;35354;51.296;16.924;2023-06-24T05:03:53;100165.44;;;16.59;100.00
49459;BME280;35354;51.296;16.924;2023-06-24T05:06:18;100121.34;;;16.35;100.00
49459;BME280;35354;51.296;16.924;2023-06-24T05:08:44;100165.44;;;16.59;100.00
49459;BME280;35354;51.296;16.924;2023-06-24T05:11:09;100153.81;;;16.49;100.00
49459;BME280;35354;51.296;16.924;2023-06-24T05:13:34;100172.84;;;16.66;100.00
49459;BME280;35354;51.296;16.924;2023-06-24T05:16:00;100175.56;;;16.65;100.00
49459;BME280;35354;51.296;16.924;2023-06-24T05:18:25;100163.56;;;16.61;100.00
49459;BME280;35354;51.296;16.924;2023-06-24T05:20:50;100163.50;;;16.48;100.00
49459;BME280;35354;51.296;16.924;2023-06-24T05:23:16;100170.88;;;16.56;100.00
49459;BME280;35354;51.296;16.924;2023-06-24T05:25:41;100186.16;;;16.63;100.00
49459;BME280;35354;51.296;16.924;2023-06-24T05:28:06;100164.69;;;16.57;100.00
49459;BME280;35354;51.296;16.924;2023-06-24T05:30:32;100192.38;;;16.77;100.00
49459;BME280;35354;51.296;16.924;2023-06-24T05:32:57;100161.66;;;16.63;100.00
49459;BME280;35354;51.296;16.924;2023-06-24T05:35:22;100195.47;;;16.83;100.00
49459;BME280;35354;51.296;16.924;2023-06-24T05:37:48;100176.41;;;16.80;100.00
49459;BME280;35354;51.296;16.924;2023-06-24T05:40:13;100193.19;;;16.91;100.00
49459;BME280;35354;51.296;16.924;2023-06-24T05:42:39;100183.69;;;16.89;100.00
49459;BME280;35354;51.296;16.924;2023-06-24T05:45:05;100203.47;;;17.09;100.00
49459;BME280;35354;51.296;16.924;2023-06-24T05:47:31;100193.72;;;17.11;100.00
49459;BME280;35354;51.296;16.924;2023-06-24T05:49:57;100165.63;;;16.97;100.00
49459;BME280;35354;51.296;16.924;2023-06-24T05:52:23;100208.91;;;17.20;100.00
49459;BME280;35354;51.296;16.924;2023-06-24T05:54:48;100181.69;;;17.07;100.00
49459;BME280;35354;51.296;16.924;2023-06-24T05:57:14;100198.56;;;17.17;100.00
49459;BME280;35354;51.296;16.924;2023-06-24T05:59:39;100198.25;;;17.21;100.00
49459;BME280;35354;51.296;16.924;2023-06-24T06:02:05;100194.47;;;17.26;100.00
49459;BME280;35354;51.296;16.924;2023-06-24T06:04:30;100165.03;;;17.06;100.00
49459;BME280;35354;51.296;16.924;2023-06-24T06:06:55;100205.16;;;17.37;100.00
49459;BME280;35354;51.296;16.924;2023-06-24T06:09:22;100189.84;;;17.29;100.00
49459;BME280;35354;51.296;16.924;2023-06-24T06:11:47;100198.94;;;17.38;100.00
49459;BME280;35354;51.296;16.924;2023-06-24T06:14:13;100202.09;;;17.43;100.00
49459;BME280;35354;51.296;16.924;2023-06-24T06:16:38;100193.47;;;17.41;100.00
49459;BME280;35354;51.296;16.924;2023-06-24T06:19:04;100212.03;;;17.52;100.00
49459;BME280;35354;51.296;16.924;2023-06-24T06:21:29;100170.59;;;17.29;100.00
49459;BME280;35354;51.296;16.924;2023-06-24T06:23:55;100215.31;;;17.56;100.00
49459;BME280;35354;51.296;16.924;2023-06-24T06:26:21;100186.41;;;17.41;100.00
49459;BME280;35354;51.296;16.924;2023-06-24T06:28:46;100203.19;;;17.53;100.00
49459;BME280;35354;51.296;16.924;2023-06-24T06:31:13;100229.25;;;17.70;100.00
49459;BME280;35354;51.296;16.924;2023-06-24T06:33:38;100229.56;;;17.66;100.00
49459;BME280;35354;51.296;16.924;2023-06-24T06:36:04;100219.41;;;17.60;100.00
49459;BME280;35354;51.296;16.924;2023-06-24T06:38:29;100200.13;;;17.46;100.00
49459;BME280;35354;51.296;16.924;2023-06-24T06:40:55;100203.69;;;17.45;100.00
49459;BME280;35354;51.296;16.924;2023-06-24T06:43:20;100203.41;;;17.50;100.00
49459;BME280;35354;51.296;16.924;2023-06-24T06:45:46;100221.09;;;17.61;100.00
49459;BME280;35354;51.296;16.924;2023-06-24T06:48:12;100231.03;;;17.70;100.00
49459;BME280;35354;51.296;16.924;2023-06-24T06:50:37;100193.69;;;17.51;100.00
49459;BME280;35354;51.296;16.924;2023-06-24T06:53:02;100224.06;;;17.69;100.00
49459;BME280;35354;51.296;16.924;2023-06-24T06:55:28;100220.50;;;17.70;100.00
49459;BME280;35354;51.296;16.924;2023-06-24T06:57:53;100210.91;;;17.69;100.00
49459;BME280;35354;51.296;16.924;2023-06-24T07:00:18;100223.59;;;17.77;100.00
49459;BME280;35354;51.296;16.924;2023-06-24T07:02:44;100192.03;;;17.62;100.00
49459;BME280;35354;51.296;16.924;2023-06-24T07:05:09;100207.06;;;17.75;100.00
49459;BME280;35354;51.296;16.924;2023-06-24T07:07:37;100236.59;;;17.92;100.00
49459;BME280;35354;51.296;16.924;2023-06-24T07:10:03;100214.22;;;17.85;100.00
49459;BME280;35354;51.296;16.924;2023-06-24T07:12:28;100187.66;;;17.76;100.00
49459;BME280;35354;51.296;16.924;2023-06-24T07:14:53;100216.78;;;18.00;100.00
49459;BME280;35354;51.296;16.924;2023-06-24T07:17:19;100230.28;;;18.08;100.00
49459;BME280;35354;51.296;16.924;2023-06-24T07:19:44;100226.25;;;18.15;100.00
49459;BME280;35354;51.296;16.924;2023-06-24T07:22:10;100237.13;;;18.23;100.00
49459;BME280;35354;51.296;16.924;2023-06-24T07:24:35;100209.59;;;18.14;100.00
49459;BME280;35354;51.296;16.924;2023-06-24T07:27:01;100216.13;;;18.22;100.00
49459;BME280;35354;51.296;16.924;2023-06-24T07:29:26;100231.75;;;18.37;100.00
49459;BME280;35354;51.296;16.924;2023-06-24T07:31:51;100225.84;;;18.34;100.00
49459;BME280;35354;51.296;16.924;2023-06-24T07:34:17;100223.09;;;18.35;100.00
49459;BME280;35354;51.296;16.924;2023-06-24T07:36:42;100229.00;;;18.39;100.00
49459;BME280;35354;51.296;16.924;2023-06-24T07:39:07;100221.78;;;18.41;100.00
49459;BME280;35354;51.296;16.924;2023-06-24T07:41:32;100237.00;;;18.50;100.00
49459;BME280;35354;51.296;16.924;2023-06-24T07:43:58;100215.59;;;18.42;100.00
49459;BME280;35354;51.296;16.924;2023-06-24T07:46:24;100249.53;;;18.59;100.00
49459;BME280;35354;51.296;16.924;2023-06-24T07:48:52;100245.63;;;18.65;100.00
49459;BME280;35354;51.296;16.924;2023-06-24T07:51:17;100247.97;;;18.69;100.00
49459;BME280;35354;51.296;16.924;2023-06-24T07:53:43;100223.38;;;18.56;100.00
49459;BME280;35354;51.296;16.924;2023-06-24T07:56:08;100239.09;;;18.70;100.00
49459;BME280;35354;51.296;16.924;2023-06-24T07:58:34;100246.13;;;18.83;100.00
49459;BME280;35354;51.296;16.924;2023-06-24T08:01:00;100214.91;;;18.77;100.00
49459;BME280;35354;51.296;16.924;2023-06-24T08:03:25;100249.16;;;19.02;100.00
49459;BME280;35354;51.296;16.924;2023-06-24T08:05:50;100213.69;;;18.93;100.00
49459;BME280;35354;51.296;16.924;2023-06-24T08:08:16;100230.00;;;19.11;100.00
49459;BME280;35354;51.296;16.924;2023-06-24T08:10:43;100231.25;;;19.18;100.00
49459;BME280;35354;51.296;16.924;2023-06-24T08:13:08;100213.72;;;19.17;100.00
49459;BME280;35354;51.296;16.924;2023-06-24T08:15:34;100201.44;;;19.16;100.00
49459;BME280;35354;51.296;16.924;2023-06-24T08:17:59;100234.66;;;19.32;100.00
49459;BME280;35354;51.296;16.924;2023-06-24T08:20:25;100229.59;;;19.29;100.00
49459;BME280;35354;51.296;16.924;2023-06-24T08:22:51;100203.25;;;19.16;100.00
49459;BME280;35354;51.296;16.924;2023-06-24T08:25:16;100239.38;;;19.39;100.00
49459;BME280;35354;51.296;16.924;2023-06-24T08:27:41;100234.31;;;19.36;100.00
49459;BME280;35354;51.296;16.924;2023-06-24T08:30:11;100241.28;;;19.37;100.00
49459;BME280;35354;51.296;16.924;2023-06-24T08:32:37;100243.84;;;19.39;100.00
49459;BME280;35354;51.296;16.924;2023-06-24T08:35:03;100236.25;;;19.34;100.00
49459;BME280;35354;51.296;16.924;2023-06-24T08:37:28;100255.94;;;19.41;100.00
49459;BME280;35354;51.296;16.924;2023-06-24T08:39:53;100248.72;;;19.32;100.00
49459;BME280;35354;51.296;16.924;2023-06-24T08:42:19;100261.91;;;19.32;100.00
49459;BME280;35354;51.296;16.924;2023-06-24T08:44:44;100257.59;;;19.31;100.00
49459;BME280;35354;51.296;16.924;2023-06-24T08:47:09;100263.38;;;19.36;100.00
49459;BME280;35354;51.296;16.924;2023-06-24T08:49:44;100250.72;;;19.29;100.00
49459;BME280;35354;51.296;16.924;2023-06-24T08:52:14;100258.22;;;19.35;100.00
49459;BME280;35354;51.296;16.924;2023-06-24T08:54:40;100261.56;;;19.37;100.00
49459;BME280;35354;51.296;16.924;2023-06-24T08:57:06;100230.63;;;19.15;100.00
49459;BME280;35354;51.296;16.924;2023-06-24T08:59:34;100265.19;;;19.36;100.00
49459;BME280;35354;51.296;16.924;2023-06-24T09:02:00;100273.16;;;19.47;100.00
49459;BME280;35354;51.296;16.924;2023-06-24T09:04:25;100270.53;;;19.47;100.00
49459;BME280;35354;51.296;16.924;2023-06-24T09:06:50;100272.69;;;19.53;100.00
49459;BME280;35354;51.296;16.924;2023-06-24T09:09:22;100237.59;;;19.40;100.00
49459;BME280;35354;51.296;16.924;2023-06-24T09:12:14;100276.75;;;19.70;100.00
49459;BME280;35354;51.296;16.924;2023-06-24T09:14:40;100278.28;;;19.85;100.00
49459;BME280;35354;51.296;16.924;2023-06-24T09:17:06;100237.25;;;19.80;100.00
49459;BME280;35354;51.296;16.924;2023-06-24T09:19:32;100247.28;;;19.99;100.00
49459;BME280;35354;51.296;16.924;2023-06-24T09:22:02;100256.34;;;20.18;100.00
49459;BME280;35354;51.296;16.924;2023-06-24T09:24:30;100269.13;;;20.36;100.00
49459;BME280;35354;51.296;16.924;2023-06-24T09:26:56;100259.16;;;20.39;100.00
49459;BME280;35354;51.296;16.924;2023-06-24T09:29:31;100278.53;;;20.62;100.00
49459;BME280;35354;51.296;16.924;2023-06-24T09:31:56;100254.34;;;20.56;100.00
49459;BME280;35354;51.296;16.924;2023-06-24T09:34:24;100266.63;;;20.68;100.00
49459;BME280;35354;51.296;16.924;2023-06-24T09:36:55;100260.13;;;20.72;100.00
49459;BME280;35354;51.296;16.924;2023-06-24T09:39:21;100256.03;;;20.79;100.00
49459;BME280;35354;51.296;16.924;2023-06-24T09:41:53;100268.63;;;20.98;100.00
49459;BME280;35354;51.296;16.924;2023-06-24T09:44:18;100274.50;;;21.13;100.00
49459;BME280;35354;51.296;16.924;2023-06-24T09:46:47;100261.25;;;21.24;100.00
49459;BME280;35354;51.296;16.924;2023-06-24T09:49:12;100252.41;;;21.46;100.00
49459;BME280;35354;51.296;16.924;2023-06-24T09:51:40;100262.97;;;21.78;100.00
49459;BME280;35354;51.296;16.924;2023-06-24T09:54:06;100240.66;;;21.81;99.18
49459;BME280;35354;51.296;16.924;2023-06-24T09:56:35;100258.53;;;22.00;98.64
49459;BME280;35354;51.296;16.924;2023-06-24T09:59:03;100255.09;;;22.09;99.07
49459;BME280;35354;51.296;16.924;2023-06-24T10:01:30;100243.38;;;22.11;99.60
49459;BME280;35354;51.296;16.924;2023-06-24T10:03:57;100266.63;;;22.19;98.50
49459;BME280;35354;51.296;16.924;2023-06-24T10:06:24;100245.44;;;22.08;99.73
49459;BME280;35354;51.296;16.924;2023-06-24T10:08:51;100254.59;;;22.15;100.00
49459;BME280;35354;51.296;16.924;2023-06-24T10:11:16;100244.59;;;22.07;97.68
49459;BME280;35354;51.296;16.924;2023-06-24T10:13:41;100242.44;;;22.12;97.62
49459;BME280;35354;51.296;16.924;2023-06-24T10:16:07;100233.38;;;22.15;99.06
49459;BME280;35354;51.296;16.924;2023-06-24T10:18:34;100235.63;;;22.20;97.95
49459;BME280;35354;51.296;16.924;2023-06-24T10:21:04;100261.06;;;22.53;96.58
49459;BME280;35354;51.296;16.924;2023-06-24T10:23:39;100233.09;;;22.49;95.91
49459;BME280;35354;51.296;16.924;2023-06-24T10:26:09;100240.56;;;22.64;94.03
49459;BME280;35354;51.296;16.924;2023-06-24T10:29:13;100260.38;;;22.91;91.98
49459;BME280;35354;51.296;16.924;2023-06-24T10:39:44;100253.88;;;23.34;88.72
49459;BME280;35354;51.296;16.924;2023-06-24T10:45:25;100248.56;;;23.24;87.51
49459;BME280;35354;51.296;16.924;2023-06-24T10:47:51;100244.94;;;23.15;89.96
49459;BME280;35354;51.296;16.924;2023-06-24T10:50:25;100215.81;;;23.04;90.07
49459;BME280;35354;51.296;16.924;2023-06-24T10:52:52;100211.63;;;23.21;89.55
49459;BME280;35354;51.296;16.924;2023-06-24T10:55:23;100210.81;;;23.40;88.46
49459;BME280;35354;51.296;16.924;2023-06-24T10:57:49;100233.63;;;23.52;86.08
49459;BME280;35354;51.296;16.924;2023-06-24T11:00:15;100206.75;;;23.36;85.42
49459;BME280;35354;51.296;16.924;2023-06-24T11:02:40;100221.88;;;23.35;86.48
49459;BME280;35354;51.296;16.924;2023-06-24T11:05:06;100223.13;;;23.31;82.64
49459;BME280;35354;51.296;16.924;2023-06-24T11:07:34;100198.03;;;22.95;82.48
49459;BME280;35354;51.296;16.924;2023-06-24T11:10:05;100219.31;;;23.05;84.63
49459;BME280;35354;51.296;16.924;2023-06-24T11:12:36;100192.19;;;23.01;86.05
49459;BME280;35354;51.296;16.924;2023-06-24T11:15:04;100205.63;;;23.19;85.95
49459;BME280;35354;51.296;16.924;2023-06-24T11:17:30;100217.13;;;23.39;85.92
49459;BME280;35354;51.296;16.924;2023-06-24T11:19:56;100189.81;;;23.27;85.03
49459;BME280;35354;51.296;16.924;2023-06-24T11:22:23;100203.38;;;23.53;82.80
49459;BME280;35354;51.296;16.924;2023-06-24T11:24:49;100207.16;;;23.60;82.16
49459;BME280;35354;51.296;16.924;2023-06-24T11:27:14;100192.34;;;23.48;83.03
49459;BME280;35354;51.296;16.924;2023-06-24T11:29:40;100204.50;;;23.51;82.59
49459;BME280;35354;51.296;16.924;2023-06-24T11:32:09;100207.03;;;23.33;83.31
49459;BME280;35354;51.296;16.924;2023-06-24T11:34:36;100207.31;;;23.20;83.36
49459;BME280;35354;51.296;16.924;2023-06-24T11:37:12;100204.78;;;23.19;83.33
49459;BME280;35354;51.296;16.924;2023-06-24T11:39:39;100197.81;;;23.18;83.32
49459;BME280;35354;51.296;16.924;2023-06-24T11:42:09;100171.78;;;23.02;83.31
49459;BME280;35354;51.296;16.924;2023-06-24T11:44:35;100182.25;;;23.03;79.88
49459;BME280;35354;51.296;16.924;2023-06-24T11:47:07;100162.34;;;22.88;80.33
49459;BME280;35354;51.296;16.924;2023-06-24T11:49:55;100177.34;;;22.99;79.66
49459;BME280;35354;51.296;16.924;2023-06-24T11:52:32;100169.66;;;22.96;80.02
49459;BME280;35354;51.296;16.924;2023-06-24T11:54:59;100154.38;;;22.88;80.94
49459;BME280;35354;51.296;16.924;2023-06-24T11:57:57;100175.53;;;22.99;82.63
49459;BME280;35354;51.296;16.924;2023-06-24T12:00:25;100171.03;;;22.80;81.27
49459;BME280;35354;51.296;16.924;2023-06-24T12:02:53;100171.97;;;22.79;81.80
49459;BME280;35354;51.296;16.924;2023-06-24T12:05:27;100172.13;;;22.68;82.57
49459;BME280;35354;51.296;16.924;2023-06-24T12:08:00;100173.94;;;22.67;82.16
49459;BME280;35354;51.296;16.924;2023-06-24T12:10:27;100165.50;;;22.62;80.11
49459;BME280;35354;51.296;16.924;2023-06-24T12:12:56;100150.56;;;22.52;79.66
49459;BME280;35354;51.296;16.924;2023-06-24T12:15:21;100175.44;;;22.60;78.73
49459;BME280;35354;51.296;16.924;2023-06-24T12:17:47;100153.19;;;22.42;79.80
49459;BME280;35354;51.296;16.924;2023-06-24T12:20:13;100142.56;;;22.42;79.60
49459;BME280;35354;51.296;16.924;2023-06-24T12:22:39;100155.03;;;22.61;78.27
49459;BME280;35354;51.296;16.924;2023-06-24T12:25:05;100138.28;;;22.60;79.90
49459;BME280;35354;51.296;16.924;2023-06-24T12:27:30;100126.69;;;22.71;79.74
49459;BME280;35354;51.296;16.924;2023-06-24T12:29:56;100116.91;;;22.72;79.03
49459;BME280;35354;51.296;16.924;2023-06-24T12:32:21;100133.81;;;22.71;75.32
49459;BME280;35354;51.296;16.924;2023-06-24T12:34:46;100121.09;;;22.74;75.61
49459;BME280;35354;51.296;16.924;2023-06-24T12:37:12;100132.72;;;22.83;73.38
49459;BME280;35354;51.296;16.924;2023-06-24T12:39:37;100125.72;;;22.72;74.27
49459;BME280;35354;51.296;16.924;2023-06-24T12:42:03;100129.06;;;22.74;74.63
49459;BME280;35354;51.296;16.924;2023-06-24T12:44:28;100163.91;;;22.81;74.20
49459;BME280;35354;51.296;16.924;2023-06-24T12:46:53;100144.00;;;22.65;74.41
49459;BME280;35354;51.296;16.924;2023-06-24T12:49:19;100144.00;;;22.56;73.18
49459;BME280;35354;51.296;16.924;2023-06-24T12:51:44;100151.81;;;22.57;73.45